Time,TemperatureF,DewpointF,PressureIn,WindDirection,WindDirectionDegrees,WindSpeedMPH,WindSpeedGustMPH,Humidity,HourlyPrecipIn,Conditions,Clouds,dailyrainin,SolarRadiationWatts/m^2,SoftwareType,DateUTC
2013-08-07 00:33:00,62.0,37.0,-100.00,SE,135,3.0,4.0,40,0.00,,,0.00,0.000000,,2013-08-07 07:33:00,
2013-08-07 00:43:00,62.0,37.0,-100.00,SE,135,3.0,4.0,40,0.00,,,0.00,0.000000,,2013-08-07 07:43:00,
2013-08-07 00:52:00,62.0,37.0,-100.00,SE,135,3.0,4.0,40,0.00,,,0.00,0.000000,,2013-08-07 07:52:00,
2013-08-07 01:22:00,63.0,38.0,-100.00,ESE,113,1.0,6.0,39,0.00,,,0.00,0.000000,,2013-08-07 08:22:00,
2013-08-07 01:32:00,63.0,38.0,-100.00,ESE,113,1.0,6.0,39,0.00,,,0.00,0.000000,,2013-08-07 08:32:00,
2013-08-07 01:43:00,63.0,38.0,-100.00,ESE,113,1.0,6.0,39,0.00,,,0.00,0.000000,,2013-08-07 08:43:00,
2013-08-07 01:52:00,63.0,38.0,-100.00,ESE,113,1.0,6.0,39,0.00,,,0.00,0.000000,,2013-08-07 08:52:00,
2013-08-07 02:43:00,60.0,38.0,-100.00,ESE,106,0.0,7.0,44,0.00,,,0.00,0.000000,,2013-08-07 09:43:00,
2013-08-07 02:54:00,60.0,38.0,-100.00,ESE,106,0.0,7.0,44,0.00,,,0.00,0.000000,,2013-08-07 09:54:00,
2013-08-07 03:32:00,61.0,39.0,-100.00,SE,134,2.0,5.0,44,0.00,,,0.00,0.000000,,2013-08-07 10:32:00,
2013-08-07 03:43:00,61.0,39.0,-100.00,SE,134,2.0,5.0,44,0.00,,,0.00,0.000000,,2013-08-07 10:43:00,
2013-08-07 03:52:00,61.0,39.0,-100.00,SE,134,2.0,5.0,44,0.00,,,0.00,0.000000,,2013-08-07 10:52:00,
2013-08-07 04:22:00,57.0,38.0,-100.00,ESE,108,0.0,7.0,48,0.00,,,0.00,0.000000,,2013-08-07 11:22:00,
2013-08-07 04:32:00,57.0,38.0,-100.00,ESE,108,0.0,7.0,48,0.00,,,0.00,0.000000,,2013-08-07 11:32:00,
2013-08-07 04:43:00,57.0,38.0,-100.00,ESE,108,0.0,7.0,48,0.00,,,0.00,0.000000,,2013-08-07 11:43:00,
2013-08-07 04:52:00,57.0,38.0,-100.00,ESE,108,0.0,7.0,48,0.00,,,0.00,0.000000,,2013-08-07 11:52:00,
2013-08-07 05:22:00,56.0,38.0,-100.00,ESE,109,0.0,0.0,51,0.00,,,0.00,0.000000,,2013-08-07 12:22:00,
2013-08-07 05:32:00,56.0,38.0,-100.00,ESE,109,0.0,0.0,51,0.00,,,0.00,0.000000,,2013-08-07 12:32:00,
2013-08-07 05:43:00,56.0,38.0,-100.00,ESE,109,0.0,0.0,51,0.00,,,0.00,0.000000,,2013-08-07 12:43:00,
2013-08-07 05:52:00,56.0,38.0,-100.00,ESE,109,0.0,0.0,51,0.00,,,0.00,0.000000,,2013-08-07 12:52:00,
2013-08-07 06:44:00,57.0,41.0,-100.00,ESE,106,0.0,5.0,54,0.00,,,0.00,0.000000,,2013-08-07 13:44:00,
2013-08-07 06:52:00,57.0,41.0,-100.00,ESE,106,0.0,5.0,54,0.00,,,0.00,0.000000,,2013-08-07 13:52:00,
2013-08-07 07:43:00,57.0,41.0,-100.00,ESE,120,0.0,3.0,55,0.00,,,0.00,11.000000,,2013-08-07 14:43:00,
2013-08-07 07:52:00,57.0,41.0,-100.00,ESE,120,0.0,3.0,55,0.00,,,0.00,11.000000,,2013-08-07 14:52:00,
2013-08-07 08:22:00,64.0,43.0,-100.00,SE,125,0.0,4.0,47,0.00,,,0.00,49.000000,,2013-08-07 15:22:00,
2013-08-07 08:33:00,64.0,43.0,-100.00,SE,125,0.0,4.0,47,0.00,,,0.00,49.000000,,2013-08-07 15:33:00,
2013-08-07 08:43:00,64.0,43.0,-100.00,SE,125,0.0,4.0,47,0.00,,,0.00,49.000000,,2013-08-07 15:43:00,
2013-08-07 08:53:00,64.0,43.0,-100.00,SE,125,0.0,4.0,47,0.00,,,0.00,49.000000,,2013-08-07 15:53:00,
2013-08-07 09:33:00,75.0,41.0,-100.00,WNW,283,0.0,4.0,30,0.00,,,0.00,422.000000,,2013-08-07 16:33:00,
2013-08-07 09:43:00,75.0,41.0,-100.00,WNW,283,0.0,4.0,30,0.00,,,0.00,422.000000,,2013-08-07 16:43:00,
2013-08-07 10:22:00,77.0,40.0,-100.00,WNW,287,3.0,5.0,27,0.00,,,0.00,740.000000,,2013-08-07 17:22:00,
2013-08-07 10:33:00,77.0,40.0,-100.00,WNW,287,3.0,5.0,27,0.00,,,0.00,740.000000,,2013-08-07 17:33:00,
2013-08-07 10:43:00,77.0,40.0,-100.00,WNW,287,3.0,5.0,27,0.00,,,0.00,740.000000,,2013-08-07 17:43:00,
2013-08-07 10:52:00,77.0,40.0,-100.00,WNW,287,3.0,5.0,27,0.00,,,0.00,740.000000,,2013-08-07 17:52:00,
2013-08-07 11:22:00,77.0,42.0,-100.00,North,1,6.0,10.0,29,0.00,,,0.00,948.000000,,2013-08-07 18:22:00,
2013-08-07 11:32:00,77.0,42.0,-100.00,North,1,6.0,10.0,29,0.00,,,0.00,948.000000,,2013-08-07 18:32:00,
2013-08-07 11:43:00,77.0,42.0,-100.00,North,1,6.0,10.0,29,0.00,,,0.00,948.000000,,2013-08-07 18:43:00,
2013-08-07 11:52:00,77.0,42.0,-100.00,North,1,6.0,10.0,29,0.00,,,0.00,948.000000,,2013-08-07 18:52:00,
2013-08-07 12:44:00,78.0,43.0,-100.00,ENE,58,5.0,11.0,29,0.00,,,0.00,1096.000000,,2013-08-07 19:44:00,
2013-08-07 12:52:00,78.0,43.0,-100.00,ENE,58,5.0,11.0,29,0.00,,,0.00,1096.000000,,2013-08-07 19:52:00,
2013-08-07 13:43:00,79.0,44.0,-100.00,WNW,282,5.0,12.0,29,0.00,,,0.00,1167.000000,,2013-08-07 20:43:00,
2013-08-07 13:52:00,79.0,44.0,-100.00,WNW,282,5.0,12.0,29,0.00,,,0.00,1167.000000,,2013-08-07 20:52:00,
2013-08-07 14:43:00,79.0,44.0,-100.00,NW,320,4.0,12.0,29,0.00,,,0.00,1171.000000,,2013-08-07 21:43:00,
2013-08-07 14:52:00,79.0,44.0,-100.00,NW,320,4.0,12.0,29,0.00,,,0.00,1171.000000,,2013-08-07 21:52:00,
2013-08-07 15:22:00,82.0,43.0,-100.00,ENE,74,4.0,12.0,25,0.00,,,0.00,1113.000000,,2013-08-07 22:22:00,
2013-08-07 15:32:00,82.0,43.0,-100.00,ENE,74,4.0,12.0,25,0.00,,,0.00,1113.000000,,2013-08-07 22:32:00,
2013-08-07 15:43:00,82.0,43.0,-100.00,ENE,74,4.0,12.0,25,0.00,,,0.00,1113.000000,,2013-08-07 22:43:00,
2013-08-07 15:52:00,82.0,43.0,-100.00,ENE,74,4.0,12.0,25,0.00,,,0.00,1113.000000,,2013-08-07 22:52:00,
2013-08-07 16:43:00,81.0,41.0,-100.00,WNW,298,5.0,13.0,24,0.00,,,0.00,992.000000,,2013-08-07 23:43:00,
2013-08-07 16:52:00,81.0,41.0,-100.00,WNW,298,5.0,13.0,24,0.00,,,0.00,992.000000,,2013-08-07 23:52:00,
2013-08-07 17:42:00,82.0,42.0,-100.00,SSW,200,4.0,12.0,24,0.00,,,0.00,796.000000,,2013-08-08 00:42:00,
2013-08-07 17:52:00,82.0,42.0,-100.00,SSW,200,4.0,12.0,24,0.00,,,0.00,796.000000,,2013-08-08 00:52:00,
2013-08-07 18:22:00,79.0,40.0,-100.00,NE,49,3.0,13.0,25,0.00,,,0.00,566.000000,,2013-08-08 01:22:00,
2013-08-07 18:32:00,79.0,40.0,-100.00,NE,49,3.0,13.0,25,0.00,,,0.00,566.000000,,2013-08-08 01:32:00,
2013-08-07 18:43:00,79.0,40.0,-100.00,NE,49,3.0,13.0,25,0.00,,,0.00,566.000000,,2013-08-08 01:43:00,
2013-08-07 18:52:00,79.0,40.0,-100.00,NE,49,3.0,13.0,25,0.00,,,0.00,566.000000,,2013-08-08 01:52:00,
2013-08-07 19:32:00,73.0,41.0,-100.00,West,276,3.0,10.0,32,0.00,,,0.00,85.000000,,2013-08-08 02:32:00,
2013-08-07 19:42:00,73.0,41.0,-100.00,West,276,3.0,10.0,32,0.00,,,0.00,85.000000,,2013-08-08 02:42:00,
2013-08-07 19:52:00,73.0,41.0,-100.00,West,276,3.0,10.0,32,0.00,,,0.00,85.000000,,2013-08-08 02:52:00,
2013-08-07 20:22:00,68.0,41.0,-100.00,NW,314,0.0,8.0,38,0.00,,,0.00,23.000000,,2013-08-08 03:22:00,
2013-08-07 20:32:00,68.0,41.0,-100.00,NW,314,0.0,8.0,38,0.00,,,0.00,23.000000,,2013-08-08 03:32:00,
2013-08-07 20:43:00,68.0,41.0,-100.00,NW,314,0.0,8.0,38,0.00,,,0.00,23.000000,,2013-08-08 03:43:00,
2013-08-07 20:52:00,68.0,41.0,-100.00,NW,314,0.0,8.0,38,0.00,,,0.00,23.000000,,2013-08-08 03:52:00,
2013-08-07 21:53:00,61.0,40.0,-100.00,SE,124,0.0,6.0,45,0.00,,,0.00,0.000000,,2013-08-08 04:53:00,
2013-08-07 22:22:00,60.0,40.0,-100.00,SE,131,0.0,5.0,47,0.00,,,0.00,0.000000,,2013-08-08 05:22:00,
2013-08-07 22:33:00,60.0,40.0,-100.00,SE,131,0.0,5.0,47,0.00,,,0.00,0.000000,,2013-08-08 05:33:00,
2013-08-07 22:43:00,60.0,40.0,-100.00,SE,131,0.0,5.0,47,0.00,,,0.00,0.000000,,2013-08-08 05:43:00,
2013-08-07 22:52:00,60.0,40.0,-100.00,SE,131,0.0,5.0,47,0.00,,,0.00,0.000000,,2013-08-08 05:52:00,
2013-08-07 23:32:00,60.0,41.0,-100.00,SE,129,0.0,6.0,50,0.00,,,0.00,0.000000,,2013-08-08 06:32:00,
2013-08-07 23:43:00,60.0,41.0,-100.00,SE,129,0.0,6.0,50,0.00,,,0.00,0.000000,,2013-08-08 06:43:00,
2013-08-07 23:52:00,60.0,41.0,-100.00,SE,129,0.0,6.0,50,0.00,,,0.00,0.000000,,2013-08-08 06:52:00,